Craigsville, Virginia
Current Conditions -  °F | °C
As of 4:15 AM on Thursday 18 Dec 2014 (Local Time) from KW13 Reporting Station
Clear Clear  
Wind Chill: 29°   Ceiling: Unl
Heat Index: 29°   Visibility: 10mi
Dew Point: 20°   Wind: 0mph
Humidity: 71%   Direction: NA
Pressure: 30.07"   Gusts: NA
Location:  38.08°N, 79.38°W
Report Text: KW13 180915Z AUTO 00000KT 10SM CLR M02/M06 A3007 RMK AO1 T10181065
Loading
Personal Weather Stations






























Interactive Weather Map New forecast layout! Learn more

10-Day Weather Forecast

Advertisements
Track Severe Weather on mobile